aviador You're here:

YSNF Decoded Metar

NORFOLK ISLAND in AUSTRALIA
Report Time2017-07-25 20:00:00
UTC Time2017-07-25 20:45:39
Flight Rules vfr VFR
WindCalm
Visibility9999 m
Phenomena:N/A
Clouds:Scattered 032 Hf
Expected CloudBase > 800 ft AGL from Temp-Dew spread
CeilingNone
Temp13°C (ISA -1)
Dew Point11°C (88% RH)
QNH1019 hPa
Density Alt180 ft
Elevation358 ft
Report Wrong Elevation
Raw Report
METAR YSNF 252000Z AUTO 00000KT 9999 // SCT032 13/11 Q1019=

Extra information for YSNF:More info

Metar Taf Metar & Taf Last 4 Metars F.Rules Stats Wind Profile Meteogram Temp Stats Airport Information Weather charts Add Link Nearby VenuesMetar ALERT Operation Metar Decoded Social comments